Time;durP1;ratioP1;P1;durP2;ratioP2;P2;SDS_P1;SDS_P2;PMS_P1;PMS_P2;Temp;Humidity;BMP_temperature;BMP_pressure;BME280_temperature;BME280_humidity;BME280_pressure;Samples;Min_cycle;Max_cycle;Signal;HPM_P1;HPM_P2
2023/04/15 00:01:23;;;;;;;10.20;5.85;;;;;;;7.35;82.13;100733.09;4992006;28;20030;-72
2023/04/15 00:03:53;;;;;;;10.63;5.60;;;;;;;7.32;82.94;100734.88;4990103;28;20033;-73
2023/04/15 00:06:19;;;;;;;12.07;5.95;;;;;;;7.23;82.11;100728.09;4991180;28;20022;-72
2023/04/15 00:08:45;;;;;;;11.38;6.07;;;;;;;7.23;81.63;100730.69;4990752;28;20026;-72
2023/04/15 00:11:11;;;;;;;11.38;6.80;;;;;;;7.19;82.75;100732.47;4990310;28;20018;-72
2023/04/15 00:13:37;;;;;;;13.63;7.13;;;;;;;7.15;83.09;100733.34;4989077;28;20122;-72
2023/04/15 00:16:02;;;;;;;11.07;6.03;;;;;;;7.08;83.15;100718.75;4990300;28;20102;-72
2023/04/15 00:18:28;;;;;;;12.07;6.78;;;;;;;7.11;83.31;100726.47;4988910;28;20543;-72
2023/04/15 00:20:54;;;;;;;11.73;6.38;;;;;;;7.00;83.75;100720.56;4990130;28;20084;-72
2023/04/15 00:23:19;;;;;;;10.80;6.22;;;;;;;6.99;84.42;100716.25;4990264;28;20023;-72
2023/04/15 00:25:45;;;;;;;11.57;6.53;;;;;;;6.92;85.92;100697.31;4988846;28;20023;-72
2023/04/15 00:28:11;;;;;;;12.18;7.07;;;;;;;6.99;86.14;100729.19;4990864;28;20033;-72
2023/04/15 00:30:36;;;;;;;13.30;7.53;;;;;;;6.97;85.34;100734.41;4989436;28;20022;-72
2023/04/15 00:33:02;;;;;;;12.88;7.40;;;;;;;6.94;85.17;100729.25;4990308;28;20023;-72
2023/04/15 00:35:28;;;;;;;12.07;7.78;;;;;;;6.93;85.63;100729.25;4988937;28;20030;-72
2023/04/15 00:37:53;;;;;;;13.48;8.23;;;;;;;6.88;85.84;100724.13;4990289;28;20374;-72
2023/04/15 00:40:20;;;;;;;14.50;8.32;;;;;;;6.85;85.80;100729.34;4990320;28;20473;-72
2023/04/15 00:42:46;;;;;;;14.35;9.40;;;;;;;6.82;86.65;100720.75;4990682;28;20110;-72
2023/04/15 00:45:11;;;;;;;15.63;8.73;;;;;;;6.83;86.79;100727.63;4990857;28;20516;-72
2023/04/15 00:47:40;;;;;;;17.52;9.60;;;;;;;6.68;86.31;100713.97;4989830;28;20030;-72
2023/04/15 00:50:06;;;;;;;15.95;9.85;;;;;;;6.75;86.95;100727.72;4990568;28;20037;-72
2023/04/15 00:52:31;;;;;;;15.38;10.35;;;;;;;6.66;86.17;100720.88;4991068;28;20022;-72
2023/04/15 00:54:57;;;;;;;16.42;9.75;;;;;;;6.69;87.19;100728.63;4989142;28;20486;-72
2023/04/15 00:57:22;;;;;;;15.73;10.30;;;;;;;6.62;87.47;100721.78;4990698;28;20543;-72
2023/04/15 00:59:48;;;;;;;18.23;10.15;;;;;;;6.60;87.63;100731.31;4990347;28;20484;-72
2023/04/15 01:02:13;;;;;;;17.05;10.48;;;;;;;6.55;87.92;100733.09;4989497;28;20038;-72
2023/04/15 01:04:39;;;;;;;14.35;9.88;;;;;;;6.38;88.39;100701.31;4990207;28;20072;-72
2023/04/15 01:07:04;;;;;;;17.40;10.38;;;;;;;6.51;88.78;100727.06;4989322;28;20026;-72
2023/04/15 01:09:30;;;;;;;14.13;10.23;;;;;;;6.45;89.68;100721.94;4998938;28;20025;-73
2023/04/15 01:11:55;;;;;;;15.98;9.95;;;;;;;6.38;87.42;100717.69;4995368;28;20046;-72
2023/04/15 01:14:21;;;;;;;14.40;10.23;;;;;;;6.41;89.14;100729.75;4989744;28;20037;-72
2023/04/15 01:16:46;;;;;;;16.40;10.30;;;;;;;6.37;88.76;100733.22;4990184;28;20493;-73
2023/04/15 01:19:15;;;;;;;17.88;9.85;;;;;;;6.32;89.65;100734.13;4990126;28;20029;-72
2023/04/15 01:21:41;;;;;;;15.65;10.50;;;;;;;6.30;89.63;100735.84;4989134;28;20110;-73
2023/04/15 01:24:09;;;;;;;15.75;10.23;;;;;;;6.28;89.76;100740.22;4990263;28;20180;-72
2023/04/15 01:26:39;;;;;;;15.30;10.88;;;;;;;6.23;90.89;100735.94;5001538;28;20026;-73
2023/04/15 01:29:05;;;;;;;15.20;10.48;;;;;;;6.15;92.02;100728.22;4997540;28;20033;-72
2023/04/15 01:31:31;;;;;;;14.93;10.52;;;;;;;6.18;91.88;100733.38;4993406;28;20019;-72
2023/04/15 01:33:56;;;;;;;16.45;10.63;;;;;;;6.16;92.65;100732.53;4993201;28;20019;-72
2023/04/15 01:36:21;;;;;;;16.88;10.93;;;;;;;6.16;91.63;100735.13;4992034;28;20037;-72
2023/04/15 01:38:47;;;;;;;15.95;10.73;;;;;;;6.16;92.67;100734.25;4993362;28;20492;-72
2023/04/15 01:41:12;;;;;;;19.00;10.95;;;;;;;6.13;92.16;100729.97;4991466;28;20138;-72
2023/04/15 01:43:38;;;;;;;16.70;10.88;;;;;;;6.12;92.27;100730.84;4990853;28;20488;-72
2023/04/15 01:46:04;;;;;;;18.90;11.88;;;;;;;6.15;93.13;100727.34;4991927;28;20034;-72
2023/04/15 01:48:29;;;;;;;18.00;12.23;;;;;;;6.17;93.05;100730.78;4992569;28;20027;-72
2023/04/15 01:50:56;;;;;;;17.67;12.65;;;;;;;6.18;92.70;100724.75;4990196;28;20022;-72
2023/04/15 01:53:23;;;;;;;20.00;12.07;;;;;;;6.18;91.62;100737.69;4992226;28;20125;-72
2023/04/15 01:55:48;;;;;;;19.65;11.65;;;;;;;6.18;91.54;100724.75;4991299;28;20031;-72
2023/04/15 01:58:14;;;;;;;19.83;12.25;;;;;;;6.19;92.44;100727.31;4992811;28;20033;-72
2023/04/15 02:00:40;;;;;;;15.60;12.20;;;;;;;6.13;92.33;100721.34;4993338;28;20514;-72
2023/04/15 02:03:05;;;;;;;17.95;12.15;;;;;;;6.15;91.48;100723.06;4993310;28;20029;-73
2023/04/15 02:05:30;;;;;;;21.75;11.90;;;;;;;6.15;92.16;100725.66;4992450;28;20400;-72
2023/04/15 02:07:56;;;;;;;17.55;12.40;;;;;;;6.11;92.42;100729.09;4993103;28;20038;-72
2023/04/15 02:10:22;;;;;;;17.02;12.40;;;;;;;6.02;92.88;100721.41;4992231;28;20359;-73
2023/04/15 02:12:47;;;;;;;24.55;12.82;;;;;;;6.03;91.73;100725.72;4992972;28;20034;-72
2023/04/15 02:15:13;;;;;;;16.45;12.75;;;;;;;6.00;92.65;100729.19;4993212;28;20080;-72
2023/04/15 02:17:38;;;;;;;19.90;12.82;;;;;;;5.92;92.51;100730.94;4992329;28;20721;-72
2023/04/15 02:20:07;;;;;;;17.80;12.98;;;;;;;5.92;92.30;100735.22;4993917;28;20080;-73
2023/04/15 02:22:33;;;;;;;14.90;13.13;;;;;;;5.89;92.74;100730.09;4992899;28;20026;-72
2023/04/15 02:24:58;;;;;;;17.65;12.75;;;;;;;5.86;93.30;100738.72;4991943;28;20105;-72
2023/04/15 02:27:23;;;;;;;19.75;14.98;;;;;;;5.73;93.80;100724.16;4992560;28;20134;-72
2023/04/15 02:29:50;;;;;;;23.48;14.50;;;;;;;5.81;94.64;100743.06;5006155;28;20034;-72
2023/04/15 02:32:16;;;;;;;21.17;14.80;;;;;;;5.76;94.81;100753.44;5011182;28;20533;-72
2023/04/15 02:34:41;;;;;;;22.83;15.00;;;;;;;5.73;96.54;100755.19;5009904;28;20030;-72
2023/04/15 02:37:08;;;;;;;22.88;14.02;;;;;;;5.60;96.04;100738.88;5012309;28;20030;-72
2023/04/15 02:39:33;;;;;;;23.38;14.23;;;;;;;5.61;96.36;100756.94;5011386;28;20022;-72
2023/04/15 02:41:59;;;;;;;18.42;14.23;;;;;;;5.51;97.29;100744.06;5011712;28;20018;-72
2023/04/15 02:44:26;;;;;;;18.92;14.05;;;;;;;5.56;96.77;100763.03;5012145;28;20026;-72
2023/04/15 02:46:53;;;;;;;17.95;12.52;;;;;;;5.50;97.23;100761.31;5010779;28;20033;-72
2023/04/15 02:49:19;;;;;;;20.88;12.35;;;;;;;5.47;97.69;100765.66;5011635;28;20374;-73
2023/04/15 02:51:48;;;;;;;17.90;12.13;;;;;;;5.42;97.31;100762.22;4996385;28;20027;-73
2023/04/15 02:54:17;;;;;;;17.35;11.35;;;;;;;5.38;98.60;100762.22;5011005;28;20050;-72
2023/04/15 02:56:42;;;;;;;16.52;11.57;;;;;;;5.30;98.80;100766.56;4995609;28;20393;-72
2023/04/15 02:59:07;;;;;;;17.63;10.77;;;;;;;5.34;99.22;100770.84;5011452;28;20018;-72
2023/04/15 03:01:33;;;;;;;20.30;11.40;;;;;;;5.31;99.97;100773.44;5004366;28;20126;-72
2023/04/15 03:03:58;;;;;;;17.95;10.93;;;;;;;5.31;100.00;100768.28;5008900;28;20022;-72
2023/04/15 03:06:23;;;;;;;14.60;10.73;;;;;;;5.31;100.00;100773.44;5011894;28;20044;-73
2023/04/15 03:08:49;;;;;;;16.20;10.55;;;;;;;5.28;100.00;100770.00;5000495;28;20534;-72
2023/04/15 03:11:15;;;;;;;16.30;10.43;;;;;;;5.26;100.00;100769.16;5011703;28;20482;-72
2023/04/15 03:13:42;;;;;;;16.02;10.48;;;;;;;5.21;100.00;100766.59;5004043;28;20484;-73
2023/04/15 03:16:07;;;;;;;17.83;10.80;;;;;;;5.25;100.00;100773.47;5010546;28;20022;-72
2023/04/15 03:18:33;;;;;;;16.50;10.88;;;;;;;5.16;100.00;100765.72;5011569;28;20483;-72
2023/04/15 03:20:58;;;;;;;20.92;10.75;;;;;;;5.16;100.00;100773.47;5010606;28;20612;-72
2023/04/15 03:23:24;;;;;;;16.85;10.93;;;;;;;5.14;100.00;100777.81;5011774;28;20041;-72
2023/04/15 03:25:49;;;;;;;15.90;11.38;;;;;;;5.13;100.00;100776.94;5000628;28;20014;-72
2023/04/15 03:28:15;;;;;;;21.40;11.40;;;;;;;4.97;100.00;100758.88;5010925;28;20365;-72
2023/04/15 03:30:40;;;;;;;17.48;11.02;;;;;;;5.07;100.00;100781.28;5011441;28;20029;-72
2023/04/15 03:33:06;;;;;;;15.45;10.65;;;;;;;5.03;100.00;100782.13;5011299;28;20458;-72
2023/04/15 03:35:31;;;;;;;15.75;11.23;;;;;;;4.98;100.00;100789.03;5010813;28;20037;-72
2023/04/15 03:37:56;;;;;;;15.68;10.68;;;;;;;5.01;100.00;100789.03;5010635;28;20074;-72
2023/04/15 03:40:22;;;;;;;17.00;10.82;;;;;;;5.00;100.00;100798.47;5011170;28;20030;-72
2023/04/15 03:42:47;;;;;;;16.27;11.35;;;;;;;4.96;100.00;100799.34;4999283;28;20023;-73
2023/04/15 03:45:12;;;;;;;17.33;11.23;;;;;;;4.97;100.00;100801.09;5010621;28;20468;-72
2023/04/15 03:47:38;;;;;;;15.63;10.55;;;;;;;4.94;100.00;100803.69;5010599;28;20389;-72
2023/04/15 03:50:03;;;;;;;17.25;11.38;;;;;;;4.95;100.00;100809.72;5007744;28;20037;-72
2023/04/15 03:52:29;;;;;;;15.75;10.77;;;;;;;4.91;100.00;100804.53;5011121;28;20029;-72
2023/04/15 03:54:54;;;;;;;16.02;11.98;;;;;;;4.91;100.00;100808.84;5010429;28;20042;-72
2023/04/15 03:57:20;;;;;;;15.02;10.63;;;;;;;4.89;100.00;100813.16;5010478;28;20025;-73
2023/04/15 03:59:45;;;;;;;15.15;11.07;;;;;;;4.81;100.00;100801.97;5000061;28;20803;-73
2023/04/15 04:02:11;;;;;;;15.57;10.63;;;;;;;4.85;100.00;100819.19;5009887;28;20022;-72
2023/04/15 04:04:36;;;;;;;16.58;10.85;;;;;;;4.85;100.00;100816.59;5010317;28;20026;-72
2023/04/15 04:07:01;;;;;;;18.05;11.27;;;;;;;4.81;100.00;100818.31;5010448;28;20058;-73
2023/04/15 04:09:26;;;;;;;20.25;11.80;;;;;;;4.76;100.00;100822.63;5010803;28;20499;-72
2023/04/15 04:11:52;;;;;;;16.17;10.70;;;;;;;4.74;100.00;100826.94;5009458;28;20071;-72
2023/04/15 04:14:17;;;;;;;15.95;11.25;;;;;;;4.68;100.00;100821.78;5009166;28;20029;-72
2023/04/15 04:16:43;;;;;;;18.75;11.32;;;;;;;4.65;100.00;100832.94;4992271;28;20110;-72
2023/04/15 04:19:08;;;;;;;17.25;10.95;;;;;;;4.68;100.00;100845.00;5003321;28;20037;-72
2023/04/15 04:21:35;;;;;;;16.27;11.27;;;;;;;4.66;100.00;100847.56;4994731;28;20034;-72
2023/04/15 04:24:00;;;;;;;17.65;11.57;;;;;;;4.64;100.00;100856.16;5002010;28;20026;-72
2023/04/15 04:26:26;;;;;;;16.35;11.30;;;;;;;4.57;100.00;100850.13;4992179;28;20038;-72
2023/04/15 04:28:51;;;;;;;19.13;11.93;;;;;;;4.57;100.00;100862.19;5004986;28;20029;-73
2023/04/15 04:31:17;;;;;;;17.17;11.15;;;;;;;4.52;100.00;100845.84;5002649;28;20074;-72
2023/04/15 04:33:42;;;;;;;15.80;11.05;;;;;;;4.52;100.00;100861.34;5000380;28;20039;-73
2023/04/15 04:36:08;;;;;;;16.23;10.90;;;;;;;4.47;100.00;100864.75;5009179;28;20053;-73
2023/04/15 04:38:33;;;;;;;19.13;12.23;;;;;;;4.38;100.00;100854.44;5009620;28;20473;-73
2023/04/15 04:40:58;;;;;;;15.38;11.10;;;;;;;4.47;100.00;100864.75;5010452;28;20034;-73
2023/04/15 04:43:24;;;;;;;15.02;11.50;;;;;;;4.43;100.00;100870.78;5001417;28;20469;-72
2023/04/15 04:45:49;;;;;;;15.98;11.20;;;;;;;4.45;100.00;100881.97;5009022;28;20105;-72
2023/04/15 04:48:15;;;;;;;13.65;10.95;;;;;;;4.37;100.00;100875.94;5010220;28;20022;-72
2023/04/15 04:50:41;;;;;;;20.13;11.82;;;;;;;4.38;100.00;100879.38;5008040;28;20053;-72
2023/04/15 04:53:06;;;;;;;16.73;11.32;;;;;;;4.35;100.00;100880.25;5009158;28;20060;-73
2023/04/15 04:55:32;;;;;;;16.05;11.35;;;;;;;4.38;100.00;100894.84;5010230;28;20067;-72
2023/04/15 04:57:57;;;;;;;16.13;11.13;;;;;;;4.38;100.00;100890.56;5009751;28;20131;-72
2023/04/15 05:00:22;;;;;;;18.33;12.40;;;;;;;4.35;100.00;100895.72;5008010;28;20042;-72
2023/04/15 05:02:47;;;;;;;16.48;12.32;;;;;;;4.39;100.00;100904.34;5009874;28;20037;-72
2023/04/15 05:05:13;;;;;;;16.02;11.35;;;;;;;4.31;100.00;100893.97;5009969;28;20030;-72
2023/04/15 05:07:38;;;;;;;15.63;11.35;;;;;;;4.37;100.00;100906.91;5007110;28;20028;-72
2023/04/15 05:10:04;;;;;;;18.00;12.10;;;;;;;4.37;100.00;100906.03;5009697;28;20037;-72
2023/04/15 05:12:30;;;;;;;19.38;11.63;;;;;;;4.39;100.00;100904.34;5010068;28;20109;-72
2023/04/15 05:14:55;;;;;;;16.70;11.73;;;;;;;4.45;100.00;100915.53;5008765;28;20178;-72
2023/04/15 05:17:20;;;;;;;16.55;12.15;;;;;;;4.48;100.00;100922.44;5009436;28;20026;-72
2023/04/15 05:19:46;;;;;;;16.25;11.80;;;;;;;4.52;100.00;100928.47;5007473;28;20055;-72
2023/04/15 05:22:11;;;;;;;17.92;12.25;;;;;;;4.52;100.00;100931.91;5008919;28;20033;-73
2023/04/15 05:24:36;;;;;;;19.95;11.80;;;;;;;4.52;100.00;100920.72;5008081;28;20037;-72
2023/04/15 05:27:02;;;;;;;18.88;12.05;;;;;;;4.62;100.00;100937.97;5006367;28;20045;-72
2023/04/15 05:29:28;;;;;;;18.05;12.10;;;;;;;4.59;100.00;100936.22;4988682;28;20022;-72
2023/04/15 05:31:53;;;;;;;19.58;12.20;;;;;;;4.61;100.00;100944.84;4992788;28;20370;-72
2023/04/15 05:34:19;;;;;;;16.88;12.40;;;;;;;4.64;100.00;100943.97;5006461;28;20034;-72
2023/04/15 05:36:44;;;;;;;19.30;11.77;;;;;;;4.61;100.00;100955.19;5001498;28;20044;-72
2023/04/15 05:39:09;;;;;;;18.67;11.65;;;;;;;4.63;100.00;100956.03;5009632;28;20026;-72
2023/04/15 05:41:34;;;;;;;18.63;12.00;;;;;;;4.64;100.00;100954.31;5003119;28;20030;-72
2023/04/15 05:44:00;;;;;;;19.45;12.95;;;;;;;4.54;100.00;100945.66;5009118;28;20030;-72
2023/04/15 05:46:26;;;;;;;18.15;12.80;;;;;;;4.68;100.00;100966.38;5009416;28;20037;-72
2023/04/15 05:48:51;;;;;;;19.23;12.77;;;;;;;4.64;100.00;100970.69;5001721;28;20024;-72
2023/04/15 05:51:17;;;;;;;21.67;13.80;;;;;;;4.68;100.00;100971.56;4996486;28;20026;-72
2023/04/15 05:53:42;;;;;;;19.15;12.52;;;;;;;4.72;100.00;100981.03;5008322;28;20142;-72
2023/04/15 05:56:07;;;;;;;17.45;12.38;;;;;;;4.72;100.00;100983.59;5008618;28;20109;-72
2023/04/15 05:58:32;;;;;;;19.50;12.35;;;;;;;4.75;100.00;100983.63;5003296;28;20200;-72
2023/04/15 06:00:58;;;;;;;20.00;12.40;;;;;;;4.77;100.00;100991.34;5008905;28;20488;-72
2023/04/15 06:03:24;;;;;;;17.13;12.80;;;;;;;4.82;100.00;100995.69;5008550;28;20034;-72
2023/04/15 06:05:49;;;;;;;16.77;12.00;;;;;;;4.78;100.00;100985.34;5009097;28;20477;-72
2023/04/15 06:08:15;;;;;;;16.65;11.75;;;;;;;4.91;100.00;100998.28;5009224;28;20033;-72
2023/04/15 06:10:40;;;;;;;18.13;12.02;;;;;;;4.99;100.00;100997.44;5008016;28;20042;-72
2023/04/15 06:13:06;;;;;;;18.80;13.35;;;;;;;5.01;100.00;101001.75;5012290;28;20026;-72
2023/04/15 06:15:32;;;;;;;19.30;12.40;;;;;;;5.08;100.00;101007.81;5006906;28;20433;-72
2023/04/15 06:17:57;;;;;;;19.05;13.32;;;;;;;5.16;100.00;101009.53;5011717;28;20033;-72
2023/04/15 06:20:22;;;;;;;16.73;12.38;;;;;;;5.25;100.00;101016.44;5012665;28;20044;-72
2023/04/15 06:22:48;;;;;;;19.63;12.75;;;;;;;5.31;100.00;101016.44;5012000;28;20025;-72
2023/04/15 06:25:13;;;;;;;18.73;12.15;;;;;;;5.32;100.00;101012.13;5011576;28;20080;-72
2023/04/15 06:27:39;;;;;;;16.90;11.55;;;;;;;5.51;100.00;101024.22;5011791;28;20044;-73
2023/04/15 06:30:05;;;;;;;17.80;13.23;;;;;;;5.65;100.00;101037.13;5007092;28;20030;-72
2023/04/15 06:32:31;;;;;;;17.42;12.27;;;;;;;5.68;100.00;101031.97;5008206;28;20061;-72
2023/04/15 06:34:57;;;;;;;18.60;12.13;;;;;;;5.84;100.00;101035.41;4996244;28;20041;-72
2023/04/15 06:37:28;;;;;;;17.08;12.10;;;;;;;5.87;100.00;101038.00;4999782;28;20037;-72
2023/04/15 06:39:53;;;;;;;16.92;12.80;;;;;;;5.98;100.00;101040.59;4999515;28;20044;-72
2023/04/15 06:42:19;;;;;;;18.30;12.23;;;;;;;6.03;100.00;101044.06;5002124;28;20461;-72
2023/04/15 06:44:44;;;;;;;18.50;12.43;;;;;;;6.16;100.00;101061.28;4996476;28;20026;-72
2023/04/15 06:47:11;;;;;;;17.42;12.43;;;;;;;6.22;100.00;101058.69;5002128;28;20021;-72
2023/04/15 06:49:37;;;;;;;17.27;12.15;;;;;;;6.26;100.00;101064.72;5002818;28;20022;-72
2023/04/15 06:52:03;;;;;;;17.67;12.52;;;;;;;6.33;100.00;101071.59;4998354;28;20487;-73
2023/04/15 06:54:29;;;;;;;15.65;12.88;;;;;;;6.40;100.00;101070.72;4993306;28;20138;-72
2023/04/15 06:56:54;;;;;;;19.80;12.50;;;;;;;6.44;100.00;101066.38;5007215;28;20521;-73
2023/04/15 06:59:19;;;;;;;16.23;12.68;;;;;;;6.51;100.00;101078.47;5010989;28;20035;-72
2023/04/15 07:01:45;;;;;;;20.02;12.75;;;;;;;6.59;100.00;101086.22;5008670;28;20065;-73
2023/04/15 07:04:11;;;;;;;16.20;12.32;;;;;;;6.66;100.00;101091.34;5011921;28;20032;-72
2023/04/15 07:06:36;;;;;;;18.05;13.13;;;;;;;6.71;100.00;101086.19;5001788;28;20037;-72
2023/04/15 07:09:02;;;;;;;18.13;12.60;;;;;;;6.82;100.00;101094.75;4998405;28;20369;-72
2023/04/15 07:11:27;;;;;;;18.00;12.30;;;;;;;6.89;100.00;101088.66;4991762;28;20108;-72
2023/04/15 07:13:53;;;;;;;17.98;12.43;;;;;;;6.99;100.00;101092.94;5004733;28;20046;-72
2023/04/15 07:16:18;;;;;;;17.50;13.02;;;;;;;6.91;100.00;101080.91;5007655;28;20125;-72
2023/04/15 07:18:43;;;;;;;17.83;12.38;;;;;;;7.18;100.00;101105.81;5005299;28;20034;-72
2023/04/15 07:21:09;;;;;;;18.55;12.52;;;;;;;7.25;100.00;101110.97;4995049;28;20124;-72
2023/04/15 07:23:34;;;;;;;14.18;11.98;;;;;;;7.32;100.00;101105.75;4986317;28;20038;-72
2023/04/15 07:26:00;;;;;;;18.13;12.35;;;;;;;7.44;100.00;101111.72;4990431;28;20018;-72
2023/04/15 07:28:25;;;;;;;15.52;12.13;;;;;;;7.55;100.00;101116.84;4989592;28;20470;-72
2023/04/15 07:30:51;;;;;;;20.25;12.68;;;;;;;7.65;100.00;101112.44;5004970;28;20350;-72
2023/04/15 07:33:16;;;;;;;16.08;11.93;;;;;;;7.80;100.00;101124.47;5001563;28;20037;-72
2023/04/15 07:35:42;;;;;;;15.05;10.90;;;;;;;7.90;100.00;101126.09;4987915;28;20038;-73
2023/04/15 07:38:07;;;;;;;14.57;11.38;;;;;;;8.02;100.00;101126.00;5009878;28;20043;-72
2023/04/15 07:40:33;;;;;;;17.77;11.63;;;;;;;8.08;100.00;101131.16;4996549;28;20101;-72
2023/04/15 07:42:58;;;;;;;14.45;11.60;;;;;;;8.18;99.62;101132.78;4986759;28;20494;-72
2023/04/15 07:45:23;;;;;;;13.18;10.40;;;;;;;8.26;98.28;101135.31;4997746;28;20026;-72
2023/04/15 07:47:50;;;;;;;15.23;9.80;;;;;;;8.35;96.29;101140.44;5007438;28;20029;-72
2023/04/15 07:50:16;;;;;;;12.40;9.60;;;;;;;8.47;95.12;101151.59;4993807;28;20505;-72
2023/04/15 07:52:41;;;;;;;13.27;9.43;;;;;;;8.58;93.82;101154.97;4999393;28;20076;-72
2023/04/15 07:55:07;;;;;;;12.40;9.18;;;;;;;8.59;92.79;101149.75;4993414;28;20074;-74
2023/04/15 07:57:36;;;;;;;12.57;9.00;;;;;;;8.65;92.08;101148.81;5001868;28;20389;-71
2023/04/15 08:00:06;;;;;;;13.65;9.77;;;;;;;8.79;89.84;101156.47;5005011;28;20033;-72
2023/04/15 08:02:31;;;;;;;14.68;9.68;;;;;;;8.85;89.64;101156.41;5010726;28;20026;-72
2023/04/15 08:04:57;;;;;;;13.15;9.10;;;;;;;8.86;90.18;101152.91;5004239;28;20084;-73
2023/04/15 08:07:26;;;;;;;18.30;8.80;;;;;;;8.94;89.81;101164.09;4994416;28;20025;-73
2023/04/15 08:09:51;;;;;;;15.88;9.18;;;;;;;9.08;89.41;101171.72;5009694;28;20845;-73
2023/04/15 08:12:16;;;;;;;11.13;8.48;;;;;;;9.19;89.62;101169.00;5010757;28;20026;-73
2023/04/15 08:14:42;;;;;;;12.35;8.43;;;;;;;9.24;87.46;101168.06;5007481;28;20018;-73
2023/04/15 08:17:07;;;;;;;12.98;8.60;;;;;;;9.33;87.58;101182.72;4998737;28;20034;-73
2023/04/15 08:19:33;;;;;;;12.32;8.52;;;;;;;9.41;87.77;101188.66;4998130;28;20385;-73
2023/04/15 08:21:58;;;;;;;14.02;8.38;;;;;;;9.46;88.46;101180.81;4986129;28;20492;-73
2023/04/15 08:24:25;;;;;;;10.18;7.82;;;;;;;9.55;85.97;101184.16;4992197;28;20469;-73
2023/04/15 08:26:50;;;;;;;10.32;8.45;;;;;;;9.69;87.19;101194.38;4989129;28;20535;-73
2023/04/15 08:29:16;;;;;;;9.75;8.32;;;;;;;9.73;83.67;101193.44;4994434;28;20030;-72
2023/04/15 08:31:41;;;;;;;10.73;7.70;;;;;;;9.74;83.53;101196.88;5009498;28;20026;-72
2023/04/15 08:34:07;;;;;;;11.85;7.93;;;;;;;9.73;83.12;101195.19;5010396;28;20457;-73
2023/04/15 08:36:32;;;;;;;12.90;7.97;;;;;;;9.76;83.35;101201.19;5010598;28;20104;-72
2023/04/15 08:38:59;;;;;;;12.43;8.68;;;;;;;9.84;84.80;101198.47;5009242;28;20052;-73
2023/04/15 08:41:26;;;;;;;13.77;8.82;;;;;;;10.02;82.60;101210.38;5010417;28;20026;-73
2023/04/15 08:44:02;;;;;;;14.95;8.70;;;;;;;10.16;83.14;101215.38;5010240;28;20022;-73
2023/04/15 08:46:29;;;;;;;9.70;7.75;;;;;;;10.31;80.44;101216.00;5009625;28;20034;-73
2023/04/15 08:48:56;;;;;;;9.35;7.60;;;;;;;10.46;80.90;101230.56;5010109;28;20032;-73
2023/04/15 08:51:22;;;;;;;9.88;6.85;;;;;;;10.58;77.14;101228.59;5000048;28;20033;-73
2023/04/15 08:53:49;;;;;;;9.73;6.85;;;;;;;10.65;76.09;101225.84;5009565;28;20050;-73
2023/04/15 08:56:17;;;;;;;9.68;5.65;;;;;;;10.78;76.08;101235.19;5010091;28;20086;-73
2023/04/15 08:58:46;;;;;;;8.40;6.00;;;;;;;10.80;74.83;101235.16;5008865;28;20384;-73
2023/04/15 09:01:12;;;;;;;10.10;6.00;;;;;;;10.83;74.19;101245.56;5010079;28;20022;-72
2023/04/15 09:03:38;;;;;;;7.55;5.25;;;;;;;10.88;71.17;101264.56;5009568;28;20022;-73
2023/04/15 09:06:05;;;;;;;8.02;5.72;;;;;;;10.89;72.17;101263.69;5009417;28;20026;-73
2023/04/15 09:08:33;;;;;;;9.27;5.60;;;;;;;10.87;69.60;101252.41;5009954;28;20109;-70
2023/04/15 09:10:58;;;;;;;10.45;6.13;;;;;;;10.98;73.40;101262.66;5009485;28;20457;-70
2023/04/15 09:13:24;;;;;;;7.53;5.25;;;;;;;11.13;72.40;101264.13;5009218;28;20112;-70
2023/04/15 09:15:49;;;;;;;8.10;5.63;;;;;;;11.23;70.79;101258.69;5009607;28;20037;-70
2023/04/15 09:18:27;;;;;;;6.63;4.90;;;;;;;11.41;70.86;101275.75;5009726;28;20025;-70
2023/04/15 09:20:52;;;;;;;9.77;4.97;;;;;;;11.41;66.35;101287.94;5008610;28;20033;-70
2023/04/15 09:23:18;;;;;;;8.73;4.72;;;;;;;11.30;66.06;101280.31;5009971;28;20033;-70
2023/04/15 09:25:44;;;;;;;10.43;5.75;;;;;;;11.27;65.56;101295.19;5009416;28;20037;-72
2023/04/15 09:28:10;;;;;;;8.73;4.85;;;;;;;11.31;64.81;101296.84;5008984;28;20041;-71
2023/04/15 09:30:44;;;;;;;7.40;5.53;;;;;;;11.35;66.34;101301.13;5009481;28;20014;-72
2023/04/15 09:33:13;;;;;;;9.20;6.30;;;;;;;11.41;65.50;101304.47;5009619;28;20034;-72
2023/04/15 09:35:38;;;;;;;9.15;5.55;;;;;;;11.53;67.34;101310.34;5008666;28;20018;-71
2023/04/15 09:38:06;;;;;;;7.07;4.68;;;;;;;11.67;65.12;101318.75;5009824;28;20484;-72
2023/04/15 09:40:34;;;;;;;6.35;5.00;;;;;;;11.77;64.62;101309.84;5009071;28;20053;-72
2023/04/15 09:43:03;;;;;;;5.88;4.40;;;;;;;11.82;63.28;101307.97;5009313;28;20113;-72
2023/04/15 09:45:30;;;;;;;8.35;4.63;;;;;;;11.98;64.18;101312.91;5009475;28;20032;-72
2023/04/15 09:48:13;;;;;;;6.40;4.55;;;;;;;12.15;63.25;101310.78;5011192;28;20054;-71
2023/04/15 09:50:40;;;;;;;10.13;5.45;;;;;;;12.43;66.27;101302.31;5007990;28;20087;-72
2023/04/15 09:53:08;;;;;;;6.90;4.97;;;;;;;12.58;60.96;101307.16;5001254;28;20486;-72
2023/04/15 09:55:34;;;;;;;5.45;4.28;;;;;;;12.65;61.47;101308.72;4989338;28;20034;-72
2023/04/15 09:57:59;;;;;;;6.05;4.65;;;;;;;12.75;59.92;101315.47;5006069;28;20049;-72
2023/04/15 10:00:24;;;;;;;5.80;4.43;;;;;;;12.69;56.93;101307.78;5011245;28;20022;-72
2023/04/15 10:02:50;;;;;;;5.60;4.00;;;;;;;12.67;55.99;101314.78;5000892;28;20023;-72
2023/04/15 10:05:16;;;;;;;4.30;3.20;;;;;;;12.56;56.96;101320.28;4995309;28;20079;-72
2023/04/15 10:07:42;;;;;;;5.00;4.10;;;;;;;12.50;58.12;101323.06;5005238;28;20045;-72
2023/04/15 10:10:12;;;;;;;5.38;4.30;;;;;;;12.50;57.64;101333.50;5012073;28;20381;-73
2023/04/15 10:12:40;;;;;;;5.80;4.38;;;;;;;12.41;58.44;101329.34;5012331;28;20026;-72
2023/04/15 10:15:11;;;;;;;8.73;4.60;;;;;;;12.39;58.76;101330.28;5012311;28;20415;-72
2023/04/15 10:17:37;;;;;;;6.47;4.70;;;;;;;12.59;60.52;101332.44;5012095;28;20053;-73
2023/04/15 10:20:04;;;;;;;5.65;4.55;;;;;;;12.86;59.35;101326.53;5012594;28;20025;-72
2023/04/15 10:22:31;;;;;;;7.57;5.43;;;;;;;13.03;59.27;101320.84;5012344;28;20041;-72
2023/04/15 10:24:58;;;;;;;6.60;4.90;;;;;;;13.04;57.27;101317.31;5011631;28;20026;-72
2023/04/15 10:27:24;;;;;;;6.25;4.53;;;;;;;13.14;56.98;101331.03;5012030;28;20051;-72
2023/04/15 10:29:50;;;;;;;7.00;4.70;;;;;;;13.21;56.74;101335.22;5011511;28;20026;-72
2023/04/15 10:32:19;;;;;;;6.00;4.00;;;;;;;13.39;54.83;101349.59;5012419;28;20026;-72
2023/04/15 10:34:46;;;;;;;6.65;4.05;;;;;;;13.48;55.37;101338.88;5011913;28;20415;-72
2023/04/15 10:37:12;;;;;;;5.68;4.38;;;;;;;13.55;55.06;101347.44;5011436;28;20105;-72
2023/04/15 10:39:43;;;;;;;6.03;4.45;;;;;;;13.72;55.34;101342.56;5011969;28;20484;-72
2023/04/15 10:42:08;;;;;;;8.32;3.53;;;;;;;13.73;52.64;101344.31;5011949;28;20017;-73
2023/04/15 10:44:40;;;;;;;5.88;2.95;;;;;;;13.81;52.89;101354.56;5011504;28;20163;-72
2023/04/15 10:47:11;;;;;;;3.30;2.80;;;;;;;13.98;53.16;101348.81;5011832;28;20370;-73
2023/04/15 10:49:44;;;;;;;4.07;3.20;;;;;;;14.11;52.46;101347.56;5012018;28;20469;-72
2023/04/15 10:52:09;;;;;;;3.08;2.70;;;;;;;14.12;50.83;101354.50;5001361;28;20029;-73
2023/04/15 10:54:37;;;;;;;4.22;3.25;;;;;;;13.95;50.15;101356.78;5011695;28;20042;-72
2023/04/15 10:57:02;;;;;;;4.25;3.53;;;;;;;13.90;52.82;101353.44;5012021;28;20041;-72
2023/04/15 10:59:31;;;;;;;6.28;3.53;;;;;;;14.06;53.41;101362.56;5009861;28;20026;-73
2023/04/15 11:02:01;;;;;;;5.82;3.47;;;;;;;14.08;51.44;101358.13;5011606;28;20072;-73
2023/04/15 11:04:58;;;;;;;5.45;3.38;;;;;;;14.18;53.07;101345.59;5012007;28;20033;-73
2023/04/15 11:07:40;;;;;;;4.78;3.40;;;;;;;14.14;51.94;101360.56;5011521;28;20481;-72
2023/04/15 11:10:17;;;;;;;4.00;3.13;;;;;;;14.18;52.29;101356.09;5011534;28;20022;-72
2023/04/15 11:12:44;;;;;;;4.28;3.55;;;;;;;14.36;49.94;101362.56;5010691;28;20022;-72